DABB/AAE METAR and TAF weather

Enter ICAO airport designator
Station Type Date Time Source
DABB METAR 2019/12/12 12:00 UTC NOAA

DABB 121200Z 27013KT 9999 SCT020 SCT033 14/11 Q1015


Station Type Date Time Source
DABB Decoded METAR 2019/12/12 12:00 UTC NOAA

Annaba, Algeria (DABB) 36-50N 007-49E 4M
Dec 12, 2019 - 07:00 AM EST / 2019.12.12 1200 UTC
Wind: from the W (270 degrees) at 15 MPH (13 KT):0
Visibility: greater than 7 mile(s):0
Sky conditions: partly cloudy
Temperature: 57 F (14 C)
Dew Point: 51 F (11 C)
Relative Humidity: 82%
Pressure (altimeter): 29.97 in. Hg (1015 hPa)
ob: DABB 121200Z 27013KT 9999 SCT020 SCT033 14/11 Q1015
cycle: 12

Station Type Date Time Source
DABB TAF 2019/12/12 12:33 UTC NOAA

TAF DABB 121100Z 1212/1312 30014KT 8000 SCT020 SCT030 PROB30
TEMPO 1212/1221 RA FEW020TCU PROB40
TEMPO 1212/1224 34015G25KT FEW020CB
BECMG 1219/1221 20012KT
TEMPO 1303/1309 5000 -TSRA FEW020CB BKN030

Example: see airport list